sensor_id;sensor_type;location;lat;lon;timestamp;P1;durP1;ratioP1;P2;durP2;ratioP2
9563;SDS011;4820;50.870;4.702;2022-07-29T00:00:08;2.17;;;1.60;;
9563;SDS011;4820;50.870;4.702;2022-07-29T00:02:35;3.65;;;1.95;;
9563;SDS011;4820;50.870;4.702;2022-07-29T00:05:00;3.75;;;1.88;;
9563;SDS011;4820;50.870;4.702;2022-07-29T00:07:27;4.38;;;1.88;;
9563;SDS011;4820;50.870;4.702;2022-07-29T00:09:53;5.68;;;2.00;;
9563;SDS011;4820;50.870;4.702;2022-07-29T00:12:19;2.83;;;1.90;;
9563;SDS011;4820;50.870;4.702;2022-07-29T00:14:45;3.17;;;1.90;;
9563;SDS011;4820;50.870;4.702;2022-07-29T00:17:11;3.22;;;1.70;;
9563;SDS011;4820;50.870;4.702;2022-07-29T00:19:37;3.70;;;1.90;;
9563;SDS011;4820;50.870;4.702;2022-07-29T00:22:03;3.70;;;1.88;;
9563;SDS011;4820;50.870;4.702;2022-07-29T00:24:29;3.50;;;1.92;;
9563;SDS011;4820;50.870;4.702;2022-07-29T00:26:55;9.68;;;2.35;;
9563;SDS011;4820;50.870;4.702;2022-07-29T00:29:20;5.35;;;2.00;;
9563;SDS011;4820;50.870;4.702;2022-07-29T00:31:46;4.20;;;1.98;;
9563;SDS011;4820;50.870;4.702;2022-07-29T00:34:12;4.93;;;2.30;;
9563;SDS011;4820;50.870;4.702;2022-07-29T00:36:56;3.00;;;1.85;;
9563;SDS011;4820;50.870;4.702;2022-07-29T00:39:22;4.47;;;2.63;;
9563;SDS011;4820;50.870;4.702;2022-07-29T00:41:48;2.83;;;1.90;;
9563;SDS011;4820;50.870;4.702;2022-07-29T00:44:14;4.18;;;2.15;;
9563;SDS011;4820;50.870;4.702;2022-07-29T00:46:39;3.28;;;2.30;;
9563;SDS011;4820;50.870;4.702;2022-07-29T00:49:05;4.88;;;2.53;;
9563;SDS011;4820;50.870;4.702;2022-07-29T00:51:35;4.75;;;2.30;;
9563;SDS011;4820;50.870;4.702;2022-07-29T00:54:02;4.43;;;2.38;;
9563;SDS011;4820;50.870;4.702;2022-07-29T00:56:32;4.25;;;2.30;;
9563;SDS011;4820;50.870;4.702;2022-07-29T00:58:58;3.67;;;2.30;;
9563;SDS011;4820;50.870;4.702;2022-07-29T01:01:25;3.42;;;2.30;;
9563;SDS011;4820;50.870;4.702;2022-07-29T01:03:52;5.03;;;2.40;;
9563;SDS011;4820;50.870;4.702;2022-07-29T01:06:19;4.90;;;2.28;;
9563;SDS011;4820;50.870;4.702;2022-07-29T01:08:47;5.70;;;2.78;;
9563;SDS011;4820;50.870;4.702;2022-07-29T01:11:14;5.75;;;2.33;;
9563;SDS011;4820;50.870;4.702;2022-07-29T01:13:42;3.17;;;2.50;;
9563;SDS011;4820;50.870;4.702;2022-07-29T01:16:10;4.88;;;2.50;;
9563;SDS011;4820;50.870;4.702;2022-07-29T01:18:47;3.15;;;2.25;;
9563;SDS011;4820;50.870;4.702;2022-07-29T01:22:02;3.97;;;2.50;;
9563;SDS011;4820;50.870;4.702;2022-07-29T01:26:52;3.90;;;2.75;;
9563;SDS011;4820;50.870;4.702;2022-07-29T01:32:12;5.18;;;3.08;;
9563;SDS011;4820;50.870;4.702;2022-07-29T01:37:26;4.88;;;2.35;;
9563;SDS011;4820;50.870;4.702;2022-07-29T01:40:23;3.42;;;2.30;;
9563;SDS011;4820;50.870;4.702;2022-07-29T01:43:18;5.00;;;2.28;;
9563;SDS011;4820;50.870;4.702;2022-07-29T01:45:50;4.30;;;2.25;;
9563;SDS011;4820;50.870;4.702;2022-07-29T01:48:23;7.00;;;2.83;;
9563;SDS011;4820;50.870;4.702;2022-07-29T01:51:10;3.75;;;2.15;;
9563;SDS011;4820;50.870;4.702;2022-07-29T01:53:39;3.85;;;2.10;;
9563;SDS011;4820;50.870;4.702;2022-07-29T01:56:11;3.15;;;2.30;;
9563;SDS011;4820;50.870;4.702;2022-07-29T01:58:38;7.13;;;2.47;;
9563;SDS011;4820;50.870;4.702;2022-07-29T02:01:08;5.38;;;2.95;;
9563;SDS011;4820;50.870;4.702;2022-07-29T02:03:36;4.20;;;2.38;;
9563;SDS011;4820;50.870;4.702;2022-07-29T02:06:03;3.83;;;2.40;;
9563;SDS011;4820;50.870;4.702;2022-07-29T02:08:31;4.68;;;2.17;;
9563;SDS011;4820;50.870;4.702;2022-07-29T02:10:58;2.95;;;2.22;;
9563;SDS011;4820;50.870;4.702;2022-07-29T02:13:26;5.05;;;2.40;;
9563;SDS011;4820;50.870;4.702;2022-07-29T02:15:53;4.97;;;2.20;;
9563;SDS011;4820;50.870;4.702;2022-07-29T02:18:22;4.65;;;2.30;;
9563;SDS011;4820;50.870;4.702;2022-07-29T02:20:50;4.65;;;2.20;;
9563;SDS011;4820;50.870;4.702;2022-07-29T02:23:20;3.40;;;2.10;;
9563;SDS011;4820;50.870;4.702;2022-07-29T02:25:49;3.60;;;2.17;;
9563;SDS011;4820;50.870;4.702;2022-07-29T02:28:19;4.30;;;2.33;;
9563;SDS011;4820;50.870;4.702;2022-07-29T02:30:48;3.17;;;2.00;;
9563;SDS011;4820;50.870;4.702;2022-07-29T02:33:17;3.55;;;2.30;;
9563;SDS011;4820;50.870;4.702;2022-07-29T02:35:44;3.00;;;2.20;;
9563;SDS011;4820;50.870;4.702;2022-07-29T02:38:12;4.68;;;2.63;;
9563;SDS011;4820;50.870;4.702;2022-07-29T02:41:03;3.35;;;2.20;;
9563;SDS011;4820;50.870;4.702;2022-07-29T02:43:33;3.95;;;1.92;;
9563;SDS011;4820;50.870;4.702;2022-07-29T02:46:00;3.83;;;2.15;;
9563;SDS011;4820;50.870;4.702;2022-07-29T02:48:34;3.42;;;2.40;;
9563;SDS011;4820;50.870;4.702;2022-07-29T02:51:13;5.18;;;2.22;;
9563;SDS011;4820;50.870;4.702;2022-07-29T02:53:49;3.60;;;2.20;;
9563;SDS011;4820;50.870;4.702;2022-07-29T02:56:18;4.20;;;2.28;;
9563;SDS011;4820;50.870;4.702;2022-07-29T02:58:53;8.40;;;2.38;;
9563;SDS011;4820;50.870;4.702;2022-07-29T03:01:25;2.80;;;2.00;;
9563;SDS011;4820;50.870;4.702;2022-07-29T03:03:55;6.78;;;2.50;;
9563;SDS011;4820;50.870;4.702;2022-07-29T03:06:22;3.17;;;2.33;;
9563;SDS011;4820;50.870;4.702;2022-07-29T03:08:49;4.03;;;2.70;;
9563;SDS011;4820;50.870;4.702;2022-07-29T03:11:17;6.72;;;2.22;;
9563;SDS011;4820;50.870;4.702;2022-07-29T03:13:44;3.20;;;2.08;;
9563;SDS011;4820;50.870;4.702;2022-07-29T03:16:11;3.17;;;2.25;;
9563;SDS011;4820;50.870;4.702;2022-07-29T03:18:38;4.10;;;2.60;;
9563;SDS011;4820;50.870;4.702;2022-07-29T03:21:04;5.40;;;2.10;;
9563;SDS011;4820;50.870;4.702;2022-07-29T03:23:30;4.20;;;2.58;;
9563;SDS011;4820;50.870;4.702;2022-07-29T03:25:56;4.20;;;2.40;;
9563;SDS011;4820;50.870;4.702;2022-07-29T03:28:23;4.05;;;2.30;;
9563;SDS011;4820;50.870;4.702;2022-07-29T03:30:49;5.38;;;2.30;;
9563;SDS011;4820;50.870;4.702;2022-07-29T03:33:15;3.67;;;2.58;;
9563;SDS011;4820;50.870;4.702;2022-07-29T03:35:40;3.90;;;2.10;;
9563;SDS011;4820;50.870;4.702;2022-07-29T03:38:06;4.80;;;2.20;;
9563;SDS011;4820;50.870;4.702;2022-07-29T03:40:37;3.65;;;2.20;;
9563;SDS011;4820;50.870;4.702;2022-07-29T03:43:07;4.38;;;2.40;;
9563;SDS011;4820;50.870;4.702;2022-07-29T03:45:34;5.38;;;2.15;;
9563;SDS011;4820;50.870;4.702;2022-07-29T03:48:02;3.20;;;2.10;;
9563;SDS011;4820;50.870;4.702;2022-07-29T03:50:33;3.55;;;2.30;;
9563;SDS011;4820;50.870;4.702;2022-07-29T03:53:00;4.10;;;2.25;;
9563;SDS011;4820;50.870;4.702;2022-07-29T03:55:28;6.40;;;2.20;;
9563;SDS011;4820;50.870;4.702;2022-07-29T03:57:56;3.30;;;2.40;;
9563;SDS011;4820;50.870;4.702;2022-07-29T04:00:24;3.95;;;2.22;;
9563;SDS011;4820;50.870;4.702;2022-07-29T04:02:50;3.25;;;2.10;;
9563;SDS011;4820;50.870;4.702;2022-07-29T04:05:16;3.45;;;2.33;;
9563;SDS011;4820;50.870;4.702;2022-07-29T04:07:46;4.10;;;2.20;;
9563;SDS011;4820;50.870;4.702;2022-07-29T04:10:12;4.07;;;2.30;;
9563;SDS011;4820;50.870;4.702;2022-07-29T04:12:39;3.60;;;2.10;;
9563;SDS011;4820;50.870;4.702;2022-07-29T04:15:05;3.83;;;2.30;;
9563;SDS011;4820;50.870;4.702;2022-07-29T04:17:31;6.50;;;2.45;;
9563;SDS011;4820;50.870;4.702;2022-07-29T04:19:56;3.53;;;2.30;;
9563;SDS011;4820;50.870;4.702;2022-07-29T04:22:22;4.10;;;2.30;;
9563;SDS011;4820;50.870;4.702;2022-07-29T04:24:49;5.72;;;2.25;;
9563;SDS011;4820;50.870;4.702;2022-07-29T04:27:15;5.22;;;2.33;;
9563;SDS011;4820;50.870;4.702;2022-07-29T04:29:40;5.45;;;2.50;;
9563;SDS011;4820;50.870;4.702;2022-07-29T04:32:06;4.03;;;2.30;;
9563;SDS011;4820;50.870;4.702;2022-07-29T04:34:32;5.22;;;2.17;;
9563;SDS011;4820;50.870;4.702;2022-07-29T04:36:57;8.40;;;2.47;;
9563;SDS011;4820;50.870;4.702;2022-07-29T04:39:24;3.85;;;2.47;;
9563;SDS011;4820;50.870;4.702;2022-07-29T04:41:50;3.88;;;2.45;;
9563;SDS011;4820;50.870;4.702;2022-07-29T04:44:16;2.45;;;2.15;;
9563;SDS011;4820;50.870;4.702;2022-07-29T04:46:42;3.30;;;2.38;;
9563;SDS011;4820;50.870;4.702;2022-07-29T04:49:08;6.28;;;2.55;;
9563;SDS011;4820;50.870;4.702;2022-07-29T04:51:34;4.03;;;2.72;;
9563;SDS011;4820;50.870;4.702;2022-07-29T04:54:00;5.25;;;2.40;;
9563;SDS011;4820;50.870;4.702;2022-07-29T04:56:26;3.72;;;2.63;;
9563;SDS011;4820;50.870;4.702;2022-07-29T04:58:51;5.70;;;2.90;;
9563;SDS011;4820;50.870;4.702;2022-07-29T05:01:17;4.75;;;2.70;;
9563;SDS011;4820;50.870;4.702;2022-07-29T05:03:43;4.18;;;2.80;;
9563;SDS011;4820;50.870;4.702;2022-07-29T05:06:10;3.80;;;2.60;;
9563;SDS011;4820;50.870;4.702;2022-07-29T05:08:36;3.80;;;2.58;;
9563;SDS011;4820;50.870;4.702;2022-07-29T05:11:02;5.13;;;2.90;;
9563;SDS011;4820;50.870;4.702;2022-07-29T05:13:28;4.28;;;2.83;;
9563;SDS011;4820;50.870;4.702;2022-07-29T05:15:54;4.55;;;2.90;;
9563;SDS011;4820;50.870;4.702;2022-07-29T05:18:19;4.03;;;3.47;;
9563;SDS011;4820;50.870;4.702;2022-07-29T05:20:46;5.32;;;3.00;;
9563;SDS011;4820;50.870;4.702;2022-07-29T05:23:11;3.33;;;2.72;;
9563;SDS011;4820;50.870;4.702;2022-07-29T05:25:39;4.38;;;2.78;;
9563;SDS011;4820;50.870;4.702;2022-07-29T05:28:05;4.50;;;2.60;;
9563;SDS011;4820;50.870;4.702;2022-07-29T05:30:31;6.40;;;2.88;;
9563;SDS011;4820;50.870;4.702;2022-07-29T05:32:56;4.50;;;2.90;;
9563;SDS011;4820;50.870;4.702;2022-07-29T05:35:22;5.57;;;2.80;;
9563;SDS011;4820;50.870;4.702;2022-07-29T05:37:48;5.93;;;3.15;;
9563;SDS011;4820;50.870;4.702;2022-07-29T05:40:13;6.60;;;3.13;;
9563;SDS011;4820;50.870;4.702;2022-07-29T05:42:41;4.53;;;3.00;;
9563;SDS011;4820;50.870;4.702;2022-07-29T05:45:07;4.88;;;3.08;;
9563;SDS011;4820;50.870;4.702;2022-07-29T05:47:33;4.28;;;3.20;;
9563;SDS011;4820;50.870;4.702;2022-07-29T05:50:00;7.80;;;3.60;;
9563;SDS011;4820;50.870;4.702;2022-07-29T05:52:25;5.78;;;3.30;;
9563;SDS011;4820;50.870;4.702;2022-07-29T05:54:51;6.65;;;3.30;;
9563;SDS011;4820;50.870;4.702;2022-07-29T05:57:17;8.35;;;5.63;;
9563;SDS011;4820;50.870;4.702;2022-07-29T05:59:44;4.95;;;3.60;;
9563;SDS011;4820;50.870;4.702;2022-07-29T06:02:11;6.00;;;3.70;;
9563;SDS011;4820;50.870;4.702;2022-07-29T06:04:37;4.38;;;3.30;;
9563;SDS011;4820;50.870;4.702;2022-07-29T06:07:03;7.15;;;3.88;;
9563;SDS011;4820;50.870;4.702;2022-07-29T06:09:29;5.55;;;3.53;;
9563;SDS011;4820;50.870;4.702;2022-07-29T06:11:55;5.10;;;3.38;;
9563;SDS011;4820;50.870;4.702;2022-07-29T06:14:21;8.00;;;3.80;;
9563;SDS011;4820;50.870;4.702;2022-07-29T06:16:48;8.90;;;3.67;;
9563;SDS011;4820;50.870;4.702;2022-07-29T06:19:14;5.22;;;3.70;;
9563;SDS011;4820;50.870;4.702;2022-07-29T06:21:43;4.88;;;3.83;;
9563;SDS011;4820;50.870;4.702;2022-07-29T06:24:10;7.32;;;3.40;;
9563;SDS011;4820;50.870;4.702;2022-07-29T06:26:37;4.63;;;3.78;;
9563;SDS011;4820;50.870;4.702;2022-07-29T06:29:03;4.40;;;3.55;;
9563;SDS011;4820;50.870;4.702;2022-07-29T06:31:28;6.05;;;3.60;;
9563;SDS011;4820;50.870;4.702;2022-07-29T06:33:55;5.40;;;4.15;;
9563;SDS011;4820;50.870;4.702;2022-07-29T06:36:21;6.15;;;3.65;;
9563;SDS011;4820;50.870;4.702;2022-07-29T06:38:46;4.07;;;3.47;;
9563;SDS011;4820;50.870;4.702;2022-07-29T06:41:12;5.68;;;3.67;;
9563;SDS011;4820;50.870;4.702;2022-07-29T06:43:41;5.55;;;4.05;;
9563;SDS011;4820;50.870;4.702;2022-07-29T06:46:09;7.57;;;3.55;;
9563;SDS011;4820;50.870;4.702;2022-07-29T06:48:37;12.77;;;4.35;;
9563;SDS011;4820;50.870;4.702;2022-07-29T06:51:04;15.85;;;4.63;;
9563;SDS011;4820;50.870;4.702;2022-07-29T06:53:32;9.00;;;3.63;;
9563;SDS011;4820;50.870;4.702;2022-07-29T06:55:59;7.50;;;3.60;;
9563;SDS011;4820;50.870;4.702;2022-07-29T06:58:25;6.88;;;4.00;;
9563;SDS011;4820;50.870;4.702;2022-07-29T07:00:52;6.03;;;3.97;;
9563;SDS011;4820;50.870;4.702;2022-07-29T07:03:18;7.82;;;4.18;;
9563;SDS011;4820;50.870;4.702;2022-07-29T07:05:44;6.55;;;4.18;;
9563;SDS011;4820;50.870;4.702;2022-07-29T07:08:10;4.95;;;3.63;;
9563;SDS011;4820;50.870;4.702;2022-07-29T07:10:36;4.95;;;3.53;;
9563;SDS011;4820;50.870;4.702;2022-07-29T07:13:02;4.22;;;3.83;;
9563;SDS011;4820;50.870;4.702;2022-07-29T07:15:30;4.35;;;3.92;;
9563;SDS011;4820;50.870;4.702;2022-07-29T07:17:56;7.38;;;4.15;;
9563;SDS011;4820;50.870;4.702;2022-07-29T07:20:23;3.95;;;3.33;;
9563;SDS011;4820;50.870;4.702;2022-07-29T07:22:49;5.35;;;3.85;;
9563;SDS011;4820;50.870;4.702;2022-07-29T07:25:15;7.00;;;3.55;;
9563;SDS011;4820;50.870;4.702;2022-07-29T07:27:42;4.28;;;3.67;;
9563;SDS011;4820;50.870;4.702;2022-07-29T07:30:12;4.72;;;3.45;;
9563;SDS011;4820;50.870;4.702;2022-07-29T07:32:38;6.63;;;3.85;;
9563;SDS011;4820;50.870;4.702;2022-07-29T07:35:05;4.25;;;3.55;;
9563;SDS011;4820;50.870;4.702;2022-07-29T07:37:32;6.00;;;3.63;;
9563;SDS011;4820;50.870;4.702;2022-07-29T07:39:59;3.67;;;3.35;;
9563;SDS011;4820;50.870;4.702;2022-07-29T07:42:25;10.77;;;4.22;;
9563;SDS011;4820;50.870;4.702;2022-07-29T07:44:50;4.30;;;3.50;;
9563;SDS011;4820;50.870;4.702;2022-07-29T07:47:16;10.32;;;6.07;;
9563;SDS011;4820;50.870;4.702;2022-07-29T07:49:48;8.52;;;5.10;;
9563;SDS011;4820;50.870;4.702;2022-07-29T07:52:19;5.60;;;4.25;;
9563;SDS011;4820;50.870;4.702;2022-07-29T07:54:46;7.82;;;3.90;;
9563;SDS011;4820;50.870;4.702;2022-07-29T07:57:12;7.00;;;4.20;;
9563;SDS011;4820;50.870;4.702;2022-07-29T07:59:38;6.22;;;3.83;;
9563;SDS011;4820;50.870;4.702;2022-07-29T08:02:06;8.05;;;4.15;;
9563;SDS011;4820;50.870;4.702;2022-07-29T08:04:32;11.25;;;4.90;;
9563;SDS011;4820;50.870;4.702;2022-07-29T08:06:59;14.00;;;5.25;;
9563;SDS011;4820;50.870;4.702;2022-07-29T08:09:27;9.10;;;4.70;;
9563;SDS011;4820;50.870;4.702;2022-07-29T08:11:53;8.82;;;4.13;;
9563;SDS011;4820;50.870;4.702;2022-07-29T08:14:20;5.47;;;3.92;;
9563;SDS011;4820;50.870;4.702;2022-07-29T08:16:46;5.15;;;3.78;;
9563;SDS011;4820;50.870;4.702;2022-07-29T08:19:12;4.10;;;3.60;;
9563;SDS011;4820;50.870;4.702;2022-07-29T08:21:38;7.88;;;4.10;;
9563;SDS011;4820;50.870;4.702;2022-07-29T08:24:06;3.55;;;3.25;;
9563;SDS011;4820;50.870;4.702;2022-07-29T08:26:50;4.40;;;3.50;;
9563;SDS011;4820;50.870;4.702;2022-07-29T08:29:16;4.18;;;3.22;;
9563;SDS011;4820;50.870;4.702;2022-07-29T08:31:42;5.65;;;3.60;;
9563;SDS011;4820;50.870;4.702;2022-07-29T08:34:08;3.95;;;3.22;;
9563;SDS011;4820;50.870;4.702;2022-07-29T08:36:34;3.75;;;3.45;;
9563;SDS011;4820;50.870;4.702;2022-07-29T08:39:00;6.60;;;4.00;;
9563;SDS011;4820;50.870;4.702;2022-07-29T08:41:27;9.35;;;3.47;;
9563;SDS011;4820;50.870;4.702;2022-07-29T08:43:53;4.40;;;3.38;;
9563;SDS011;4820;50.870;4.702;2022-07-29T08:46:19;4.32;;;3.40;;
9563;SDS011;4820;50.870;4.702;2022-07-29T08:48:45;5.90;;;3.63;;
9563;SDS011;4820;50.870;4.702;2022-07-29T08:51:15;6.78;;;5.28;;
9563;SDS011;4820;50.870;4.702;2022-07-29T08:53:45;4.22;;;3.67;;
9563;SDS011;4820;50.870;4.702;2022-07-29T08:56:13;5.15;;;3.30;;
9563;SDS011;4820;50.870;4.702;2022-07-29T08:58:44;6.25;;;3.47;;
9563;SDS011;4820;50.870;4.702;2022-07-29T09:01:11;4.68;;;3.00;;
9563;SDS011;4820;50.870;4.702;2022-07-29T09:03:41;6.18;;;4.35;;
9563;SDS011;4820;50.870;4.702;2022-07-29T09:06:12;4.75;;;3.15;;
9563;SDS011;4820;50.870;4.702;2022-07-29T09:08:39;3.55;;;2.28;;
9563;SDS011;4820;50.870;4.702;2022-07-29T09:11:06;4.35;;;2.85;;
9563;SDS011;4820;50.870;4.702;2022-07-29T09:13:32;4.20;;;3.42;;
9563;SDS011;4820;50.870;4.702;2022-07-29T09:15:59;3.90;;;2.80;;
9563;SDS011;4820;50.870;4.702;2022-07-29T09:18:40;5.43;;;3.60;;
9563;SDS011;4820;50.870;4.702;2022-07-29T09:21:08;7.82;;;2.85;;
9563;SDS011;4820;50.870;4.702;2022-07-29T09:26:30;4.53;;;2.83;;
9563;SDS011;4820;50.870;4.702;2022-07-29T09:28:57;2.70;;;2.50;;
9563;SDS011;4820;50.870;4.702;2022-07-29T09:31:32;5.28;;;2.80;;
9563;SDS011;4820;50.870;4.702;2022-07-29T09:33:59;4.53;;;2.70;;
9563;SDS011;4820;50.870;4.702;2022-07-29T09:36:26;4.47;;;2.30;;
9563;SDS011;4820;50.870;4.702;2022-07-29T09:38:58;3.40;;;2.70;;
9563;SDS011;4820;50.870;4.702;2022-07-29T09:41:27;4.97;;;2.20;;
9563;SDS011;4820;50.870;4.702;2022-07-29T09:43:53;3.05;;;2.00;;
9563;SDS011;4820;50.870;4.702;2022-07-29T09:46:23;3.65;;;2.42;;
9563;SDS011;4820;50.870;4.702;2022-07-29T09:49:32;4.03;;;2.63;;
9563;SDS011;4820;50.870;4.702;2022-07-29T09:51:39;3.53;;;2.30;;
9563;SDS011;4820;50.870;4.702;2022-07-29T09:54:25;3.42;;;2.20;;
9563;SDS011;4820;50.870;4.702;2022-07-29T09:56:52;3.58;;;2.30;;
9563;SDS011;4820;50.870;4.702;2022-07-29T09:59:18;5.82;;;2.13;;
9563;SDS011;4820;50.870;4.702;2022-07-29T10:01:47;2.70;;;2.22;;
9563;SDS011;4820;50.870;4.702;2022-07-29T10:04:15;3.28;;;2.15;;
9563;SDS011;4820;50.870;4.702;2022-07-29T10:06:58;4.93;;;2.33;;
9563;SDS011;4820;50.870;4.702;2022-07-29T10:09:25;2.38;;;1.92;;
9563;SDS011;4820;50.870;4.702;2022-07-29T10:14:34;3.33;;;2.20;;
9563;SDS011;4820;50.870;4.702;2022-07-29T10:17:01;4.35;;;2.45;;
9563;SDS011;4820;50.870;4.702;2022-07-29T10:19:32;3.05;;;2.15;;
9563;SDS011;4820;50.870;4.702;2022-07-29T10:21:59;3.17;;;2.08;;
9563;SDS011;4820;50.870;4.702;2022-07-29T10:24:27;3.90;;;2.10;;
9563;SDS011;4820;50.870;4.702;2022-07-29T10:27:01;2.72;;;2.10;;
9563;SDS011;4820;50.870;4.702;2022-07-29T10:29:28;4.13;;;2.40;;
9563;SDS011;4820;50.870;4.702;2022-07-29T10:32:11;3.28;;;2.03;;
9563;SDS011;4820;50.870;4.702;2022-07-29T10:34:57;3.22;;;2.10;;
9563;SDS011;4820;50.870;4.702;2022-07-29T10:43:35;3.97;;;1.95;;
9563;SDS011;4820;50.870;4.702;2022-07-29T10:46:06;3.40;;;1.90;;
9563;SDS011;4820;50.870;4.702;2022-07-29T10:48:32;2.78;;;1.90;;
9563;SDS011;4820;50.870;4.702;2022-07-29T10:51:02;2.65;;;2.10;;
9563;SDS011;4820;50.870;4.702;2022-07-29T10:56:26;3.08;;;2.00;;
9563;SDS011;4820;50.870;4.702;2022-07-29T11:01:44;4.35;;;2.38;;
9563;SDS011;4820;50.870;4.702;2022-07-29T11:04:16;3.83;;;2.05;;
9563;SDS011;4820;50.870;4.702;2022-07-29T11:09:30;3.55;;;2.20;;
9563;SDS011;4820;50.870;4.702;2022-07-29T11:11:56;2.60;;;2.03;;
9563;SDS011;4820;50.870;4.702;2022-07-29T11:17:23;2.97;;;2.00;;
9563;SDS011;4820;50.870;4.702;2022-07-29T11:19:49;5.25;;;2.40;;
9563;SDS011;4820;50.870;4.702;2022-07-29T11:22:34;3.65;;;2.20;;
9563;SDS011;4820;50.870;4.702;2022-07-29T11:25:14;5.80;;;2.60;;
9563;SDS011;4820;50.870;4.702;2022-07-29T11:27:42;4.10;;;2.42;;
9563;SDS011;4820;50.870;4.702;2022-07-29T11:30:12;4.88;;;2.35;;
9563;SDS011;4820;50.870;4.702;2022-07-29T11:32:42;3.67;;;2.20;;
9563;SDS011;4820;50.870;4.702;2022-07-29T11:35:17;2.00;;;1.83;;
9563;SDS011;4820;50.870;4.702;2022-07-29T11:37:43;4.47;;;2.28;;
9563;SDS011;4820;50.870;4.702;2022-07-29T11:40:10;2.17;;;1.90;;
9563;SDS011;4820;50.870;4.702;2022-07-29T11:42:37;5.53;;;2.45;;
9563;SDS011;4820;50.870;4.702;2022-07-29T11:47:36;4.03;;;2.03;;
9563;SDS011;4820;50.870;4.702;2022-07-29T11:50:05;5.88;;;2.42;;
9563;SDS011;4820;50.870;4.702;2022-07-29T11:52:39;2.45;;;2.25;;
9563;SDS011;4820;50.870;4.702;2022-07-29T11:55:17;4.13;;;2.40;;
9563;SDS011;4820;50.870;4.702;2022-07-29T11:57:45;2.60;;;2.40;;
9563;SDS011;4820;50.870;4.702;2022-07-29T12:00:23;4.13;;;2.60;;
9563;SDS011;4820;50.870;4.702;2022-07-29T12:03:02;3.92;;;2.35;;
9563;SDS011;4820;50.870;4.702;2022-07-29T12:05:47;3.33;;;2.28;;
9563;SDS011;4820;50.870;4.702;2022-07-29T12:08:14;3.35;;;2.30;;
9563;SDS011;4820;50.870;4.702;2022-07-29T12:10:46;4.63;;;2.30;;
9563;SDS011;4820;50.870;4.702;2022-07-29T12:13:13;4.05;;;2.40;;
9563;SDS011;4820;50.870;4.702;2022-07-29T12:15:40;3.45;;;2.47;;
9563;SDS011;4820;50.870;4.702;2022-07-29T12:18:13;4.07;;;2.60;;
9563;SDS011;4820;50.870;4.702;2022-07-29T12:20:41;4.07;;;2.35;;
9563;SDS011;4820;50.870;4.702;2022-07-29T12:23:07;4.00;;;2.30;;
9563;SDS011;4820;50.870;4.702;2022-07-29T12:25:36;3.58;;;2.20;;
9563;SDS011;4820;50.870;4.702;2022-07-29T12:28:03;5.03;;;2.22;;
9563;SDS011;4820;50.870;4.702;2022-07-29T12:30:35;4.43;;;2.17;;
9563;SDS011;4820;50.870;4.702;2022-07-29T12:33:01;2.88;;;2.05;;
9563;SDS011;4820;50.870;4.702;2022-07-29T12:35:34;3.35;;;2.17;;
9563;SDS011;4820;50.870;4.702;2022-07-29T12:38:00;4.10;;;2.05;;
9563;SDS011;4820;50.870;4.702;2022-07-29T12:40:27;3.05;;;2.20;;
9563;SDS011;4820;50.870;4.702;2022-07-29T12:45:43;2.55;;;2.03;;
9563;SDS011;4820;50.870;4.702;2022-07-29T12:48:11;3.03;;;2.15;;
9563;SDS011;4820;50.870;4.702;2022-07-29T12:50:51;3.15;;;2.03;;
9563;SDS011;4820;50.870;4.702;2022-07-29T12:53:19;4.47;;;2.40;;
9563;SDS011;4820;50.870;4.702;2022-07-29T12:55:47;4.88;;;2.10;;
9563;SDS011;4820;50.870;4.702;2022-07-29T12:58:25;3.05;;;2.10;;
9563;SDS011;4820;50.870;4.702;2022-07-29T13:03:45;4.97;;;2.50;;
9563;SDS011;4820;50.870;4.702;2022-07-29T13:06:27;6.95;;;2.33;;
9563;SDS011;4820;50.870;4.702;2022-07-29T13:14:10;4.32;;;2.50;;
9563;SDS011;4820;50.870;4.702;2022-07-29T13:17:01;2.85;;;2.10;;
9563;SDS011;4820;50.870;4.702;2022-07-29T13:19:51;3.25;;;2.33;;
9563;SDS011;4820;50.870;4.702;2022-07-29T13:22:19;4.30;;;2.03;;
9563;SDS011;4820;50.870;4.702;2022-07-29T13:24:51;2.92;;;2.10;;
9563;SDS011;4820;50.870;4.702;2022-07-29T13:27:22;3.42;;;2.13;;
9563;SDS011;4820;50.870;4.702;2022-07-29T13:29:51;6.57;;;2.47;;
9563;SDS011;4820;50.870;4.702;2022-07-29T13:32:21;3.20;;;2.20;;
9563;SDS011;4820;50.870;4.702;2022-07-29T13:34:47;5.05;;;2.30;;
9563;SDS011;4820;50.870;4.702;2022-07-29T13:37:13;3.88;;;2.20;;
9563;SDS011;4820;50.870;4.702;2022-07-29T13:39:38;3.38;;;2.38;;
9563;SDS011;4820;50.870;4.702;2022-07-29T13:42:05;4.95;;;2.22;;
9563;SDS011;4820;50.870;4.702;2022-07-29T13:44:31;3.03;;;2.15;;
9563;SDS011;4820;50.870;4.702;2022-07-29T13:46:57;3.67;;;2.10;;
9563;SDS011;4820;50.870;4.702;2022-07-29T13:49:26;3.13;;;2.30;;
9563;SDS011;4820;50.870;4.702;2022-07-29T13:51:53;6.45;;;2.40;;
9563;SDS011;4820;50.870;4.702;2022-07-29T13:54:19;3.30;;;2.38;;
9563;SDS011;4820;50.870;4.702;2022-07-29T13:56:45;4.68;;;2.20;;
9563;SDS011;4820;50.870;4.702;2022-07-29T13:59:11;4.22;;;2.22;;
9563;SDS011;4820;50.870;4.702;2022-07-29T14:01:36;6.13;;;2.60;;
9563;SDS011;4820;50.870;4.702;2022-07-29T14:04:02;5.47;;;2.33;;
9563;SDS011;4820;50.870;4.702;2022-07-29T14:06:28;4.05;;;2.50;;
9563;SDS011;4820;50.870;4.702;2022-07-29T14:08:54;4.43;;;2.42;;
9563;SDS011;4820;50.870;4.702;2022-07-29T14:11:20;3.15;;;2.22;;
9563;SDS011;4820;50.870;4.702;2022-07-29T14:13:46;4.63;;;2.53;;
9563;SDS011;4820;50.870;4.702;2022-07-29T14:16:11;4.00;;;2.58;;
9563;SDS011;4820;50.870;4.702;2022-07-29T14:18:37;4.82;;;2.70;;
9563;SDS011;4820;50.870;4.702;2022-07-29T14:21:03;5.70;;;2.80;;
9563;SDS011;4820;50.870;4.702;2022-07-29T14:23:29;4.20;;;2.67;;
9563;SDS011;4820;50.870;4.702;2022-07-29T14:25:55;2.95;;;2.60;;
9563;SDS011;4820;50.870;4.702;2022-07-29T14:28:22;4.53;;;2.38;;
9563;SDS011;4820;50.870;4.702;2022-07-29T14:30:47;3.28;;;2.50;;
9563;SDS011;4820;50.870;4.702;2022-07-29T14:33:13;4.18;;;3.10;;
9563;SDS011;4820;50.870;4.702;2022-07-29T14:35:39;5.25;;;3.05;;
9563;SDS011;4820;50.870;4.702;2022-07-29T14:38:04;4.30;;;3.40;;
9563;SDS011;4820;50.870;4.702;2022-07-29T14:40:30;5.45;;;3.47;;
9563;SDS011;4820;50.870;4.702;2022-07-29T14:42:56;5.15;;;3.55;;
9563;SDS011;4820;50.870;4.702;2022-07-29T14:45:22;7.70;;;3.63;;
9563;SDS011;4820;50.870;4.702;2022-07-29T14:47:48;5.95;;;3.10;;
9563;SDS011;4820;50.870;4.702;2022-07-29T14:50:15;3.03;;;2.70;;
9563;SDS011;4820;50.870;4.702;2022-07-29T14:52:41;4.65;;;3.08;;
9563;SDS011;4820;50.870;4.702;2022-07-29T14:55:06;4.60;;;3.50;;
9563;SDS011;4820;50.870;4.702;2022-07-29T14:57:33;6.97;;;3.25;;
9563;SDS011;4820;50.870;4.702;2022-07-29T14:59:58;4.30;;;3.17;;
9563;SDS011;4820;50.870;4.702;2022-07-29T15:02:24;5.50;;;3.20;;
9563;SDS011;4820;50.870;4.702;2022-07-29T15:04:50;7.20;;;3.45;;
9563;SDS011;4820;50.870;4.702;2022-07-29T15:07:17;5.18;;;2.80;;
9563;SDS011;4820;50.870;4.702;2022-07-29T15:09:42;3.95;;;2.85;;
9563;SDS011;4820;50.870;4.702;2022-07-29T15:12:10;3.28;;;2.60;;
9563;SDS011;4820;50.870;4.702;2022-07-29T15:14:36;3.72;;;2.63;;
9563;SDS011;4820;50.870;4.702;2022-07-29T15:17:02;8.02;;;3.10;;
9563;SDS011;4820;50.870;4.702;2022-07-29T15:19:27;5.57;;;2.70;;
9563;SDS011;4820;50.870;4.702;2022-07-29T15:21:54;4.05;;;2.80;;
9563;SDS011;4820;50.870;4.702;2022-07-29T15:24:20;3.78;;;2.28;;
9563;SDS011;4820;50.870;4.702;2022-07-29T15:26:46;7.68;;;3.00;;
9563;SDS011;4820;50.870;4.702;2022-07-29T15:29:13;4.50;;;2.60;;
9563;SDS011;4820;50.870;4.702;2022-07-29T15:31:39;4.57;;;2.70;;
9563;SDS011;4820;50.870;4.702;2022-07-29T15:34:05;6.10;;;2.88;;
9563;SDS011;4820;50.870;4.702;2022-07-29T15:36:31;4.63;;;2.35;;
9563;SDS011;4820;50.870;4.702;2022-07-29T15:38:57;5.32;;;2.78;;
9563;SDS011;4820;50.870;4.702;2022-07-29T15:41:22;4.07;;;2.72;;
9563;SDS011;4820;50.870;4.702;2022-07-29T15:43:48;6.70;;;3.00;;
9563;SDS011;4820;50.870;4.702;2022-07-29T15:46:16;5.45;;;2.60;;
9563;SDS011;4820;50.870;4.702;2022-07-29T15:49:03;4.10;;;2.50;;
9563;SDS011;4820;50.870;4.702;2022-07-29T15:51:30;4.18;;;2.60;;
9563;SDS011;4820;50.870;4.702;2022-07-29T15:53:55;5.55;;;4.65;;
9563;SDS011;4820;50.870;4.702;2022-07-29T15:56:21;4.28;;;2.25;;
9563;SDS011;4820;50.870;4.702;2022-07-29T15:58:48;4.18;;;2.28;;
9563;SDS011;4820;50.870;4.702;2022-07-29T16:01:13;3.65;;;1.75;;
9563;SDS011;4820;50.870;4.702;2022-07-29T16:03:39;2.88;;;2.30;;
9563;SDS011;4820;50.870;4.702;2022-07-29T16:06:05;4.22;;;2.20;;